WZZ9909 LHBP-LTFM
Flight info
| Callsign | WZZ9909 |
|---|---|
| Flight time | 1h 50m |
| Altitude | 39000 |
| Route | N0449F390 VETIK DCT BUDOP DCT EVRIK DCT NEPOT DCT ELVAB DCT RASUB DCT BULEN DCT BUVAK DCT RIXEN |
| Aircraft | A21N/M-SDE1E2E3FGIJ1J4RWXY/LB1 |
Departure
| Time | 2026-02-22 04:25 |
|---|---|
| Airport | Budapest Liszt Ferenc International Airport (LHBP) |
Arrival
| Time | 2026-02-22 06:16 |
|---|---|
| Airport | İstanbul Airport (LTFM) |
| Time | Latitude | Longitude | Altitude | Speed | Heading |
|---|---|---|---|---|---|
| 2026-02-22 03:11 | 47.43335 | 19.25887 | 463 ft | 0 kts | 222° |
| 2026-02-22 04:08 | 47.43336 | 19.25889 | 463 ft | 1 kts | 222° |
| 2026-02-22 04:09 | 47.43349 | 19.25906 | 463 ft | 3 kts | 224° |
| 2026-02-22 04:09 | 47.43363 | 19.25927 | 462 ft | 3 kts | 223° |
| 2026-02-22 04:09 | 47.43378 | 19.25945 | 459 ft | 3 kts | 206° |
| 2026-02-22 04:09 | 47.43394 | 19.25951 | 459 ft | 2 kts | 167° |
| 2026-02-22 04:10 | 47.43410 | 19.25945 | 462 ft | 3 kts | 154° |
| 2026-02-22 04:10 | 47.43425 | 19.25928 | 462 ft | 3 kts | 133° |
| 2026-02-22 04:10 | 47.43436 | 19.25910 | 460 ft | 1 kts | 132° |
| 2026-02-22 04:10 | 47.43438 | 19.25908 | 460 ft | 0 kts | 132° |
| 2026-02-22 04:19 | 47.43436 | 19.25910 | 460 ft | 1 kts | 132° |
| 2026-02-22 04:19 | 47.43424 | 19.25933 | 462 ft | 4 kts | 118° |
| 2026-02-22 04:19 | 47.43436 | 19.25986 | 461 ft | 7 kts | 51° |
| 2026-02-22 04:19 | 47.43478 | 19.26046 | 463 ft | 10 kts | 43° |
| 2026-02-22 04:20 | 47.43535 | 19.26124 | 463 ft | 12 kts | 43° |
| 2026-02-22 04:20 | 47.43602 | 19.26217 | 463 ft | 14 kts | 43° |
| 2026-02-22 04:20 | 47.43680 | 19.26324 | 463 ft | 16 kts | 41° |
| 2026-02-22 04:20 | 47.43750 | 19.26412 | 463 ft | 11 kts | 33° |
| 2026-02-22 04:21 | 47.43819 | 19.26370 | 463 ft | 13 kts | 311° |
| 2026-02-22 04:21 | 47.43883 | 19.26264 | 463 ft | 15 kts | 312° |
| 2026-02-22 04:21 | 47.43950 | 19.26210 | 464 ft | 12 kts | 19° |
| 2026-02-22 04:21 | 47.43992 | 19.26257 | 465 ft | 0 kts | 42° |
| 2026-02-22 04:23 | 47.43999 | 19.26265 | 465 ft | 4 kts | 42° |
| 2026-02-22 04:23 | 47.44029 | 19.26314 | 468 ft | 9 kts | 55° |
| 2026-02-22 04:23 | 47.44067 | 19.26422 | 470 ft | 14 kts | 81° |
| 2026-02-22 04:23 | 47.44040 | 19.26568 | 474 ft | 16 kts | 128° |
| 2026-02-22 04:24 | 47.44008 | 19.26622 | 475 ft | 0 kts | 132° |
| 2026-02-22 04:24 | 47.43847 | 19.26886 | 474 ft | 74 kts | 132° |
| 2026-02-22 04:24 | 47.43324 | 19.27727 | 467 ft | 146 kts | 132° |
| 2026-02-22 04:25 | 47.42586 | 19.28911 | 1005 ft | 156 kts | 133° |
| 2026-02-22 04:25 | 47.41846 | 19.30123 | 1725 ft | 164 kts | 126° |
| 2026-02-22 04:25 | 47.41336 | 19.31683 | 2242 ft | 175 kts | 109° |
| 2026-02-22 04:25 | 47.40766 | 19.33310 | 2852 ft | 186 kts | 118° |
| 2026-02-22 04:26 | 47.40111 | 19.35018 | 3578 ft | 194 kts | 117° |
| 2026-02-22 04:26 | 47.39437 | 19.36785 | 4212 ft | 206 kts | 117° |
| 2026-02-22 04:26 | 47.38715 | 19.38683 | 4910 ft | 220 kts | 117° |
| 2026-02-22 04:26 | 47.38078 | 19.40907 | 5335 ft | 245 kts | 99° |
| 2026-02-22 04:27 | 47.38041 | 19.43495 | 5860 ft | 261 kts | 76° |
| 2026-02-22 04:27 | 47.38743 | 19.45967 | 6670 ft | 265 kts | 52° |
| 2026-02-22 04:27 | 47.40030 | 19.47914 | 7564 ft | 266 kts | 38° |
| 2026-02-22 04:27 | 47.41464 | 19.49676 | 8475 ft | 270 kts | 37° |
| 2026-02-22 04:28 | 47.42920 | 19.51469 | 9380 ft | 275 kts | 37° |
| 2026-02-22 04:28 | 47.44369 | 19.53291 | 10237 ft | 282 kts | 38° |
| 2026-02-22 04:28 | 47.45906 | 19.55246 | 10687 ft | 301 kts | 38° |
| 2026-02-22 04:28 | 47.47530 | 19.57326 | 11198 ft | 316 kts | 38° |
| 2026-02-22 04:29 | 47.49203 | 19.59486 | 11970 ft | 321 kts | 39° |
| 2026-02-22 04:29 | 47.50893 | 19.61673 | 12826 ft | 325 kts | 39° |
| 2026-02-22 04:29 | 47.52602 | 19.63893 | 13692 ft | 329 kts | 39° |
| 2026-02-22 04:29 | 47.54188 | 19.66366 | 14497 ft | 335 kts | 51° |
| 2026-02-22 04:30 | 47.55341 | 19.69385 | 15275 ft | 342 kts | 66° |
| 2026-02-22 04:30 | 47.55918 | 19.72822 | 16061 ft | 348 kts | 81° |
| 2026-02-22 04:30 | 47.55848 | 19.76437 | 16845 ft | 355 kts | 97° |
| 2026-02-22 04:30 | 47.55100 | 19.79947 | 17604 ft | 363 kts | 113° |
| 2026-02-22 04:31 | 47.53777 | 19.83157 | 18373 ft | 368 kts | 122° |
| 2026-02-22 04:31 | 47.52298 | 19.86285 | 19046 ft | 373 kts | 122° |
| 2026-02-22 04:31 | 47.50807 | 19.89444 | 19678 ft | 376 kts | 122° |
| 2026-02-22 04:31 | 47.49320 | 19.92647 | 20293 ft | 380 kts | 121° |
| 2026-02-22 04:32 | 47.47823 | 19.95903 | 20907 ft | 384 kts | 121° |
| 2026-02-22 04:32 | 47.46320 | 19.99191 | 21513 ft | 388 kts | 120° |
| 2026-02-22 04:32 | 47.44800 | 20.02509 | 22122 ft | 392 kts | 120° |
| 2026-02-22 04:32 | 47.43268 | 20.05841 | 22728 ft | 396 kts | 120° |
| 2026-02-22 04:33 | 47.41716 | 20.09224 | 23322 ft | 400 kts | 120° |
| 2026-02-22 04:33 | 47.40149 | 20.12632 | 23876 ft | 404 kts | 120° |
| 2026-02-22 04:33 | 47.38562 | 20.16079 | 24381 ft | 407 kts | 120° |
| 2026-02-22 04:33 | 47.36968 | 20.19538 | 24875 ft | 410 kts | 120° |
| 2026-02-22 04:34 | 47.35345 | 20.23019 | 25364 ft | 413 kts | 121° |
| 2026-02-22 04:34 | 47.33620 | 20.26435 | 25844 ft | 417 kts | 123° |
| 2026-02-22 04:34 | 47.31861 | 20.29846 | 26325 ft | 420 kts | 123° |
| 2026-02-22 04:34 | 47.30082 | 20.33274 | 26800 ft | 422 kts | 123° |
| 2026-02-22 04:35 | 47.28294 | 20.36723 | 27261 ft | 425 kts | 123° |
| 2026-02-22 04:35 | 47.26491 | 20.40188 | 27713 ft | 427 kts | 123° |
| 2026-02-22 04:35 | 47.24684 | 20.43678 | 28159 ft | 430 kts | 122° |
| 2026-02-22 04:35 | 47.22871 | 20.47192 | 28599 ft | 432 kts | 122° |
| 2026-02-22 04:36 | 47.21045 | 20.50723 | 29016 ft | 435 kts | 122° |
| 2026-02-22 04:36 | 47.19212 | 20.54272 | 29436 ft | 437 kts | 122° |
| 2026-02-22 04:36 | 47.17358 | 20.57836 | 29840 ft | 440 kts | 122° |
| 2026-02-22 04:36 | 47.16126 | 20.60202 | 30100 ft | 441 kts | 122° |
| 2026-02-22 04:37 | 47.14252 | 20.63795 | 30457 ft | 444 kts | 123° |
| 2026-02-22 04:37 | 47.12364 | 20.67400 | 30794 ft | 446 kts | 123° |
| 2026-02-22 04:37 | 47.10471 | 20.71019 | 31118 ft | 448 kts | 122° |
| 2026-02-22 04:37 | 47.08573 | 20.74648 | 31450 ft | 450 kts | 122° |
| 2026-02-22 04:38 | 47.06663 | 20.78300 | 31766 ft | 451 kts | 123° |
| 2026-02-22 04:38 | 47.04741 | 20.81948 | 32074 ft | 453 kts | 123° |
| 2026-02-22 04:38 | 47.02807 | 20.85617 | 32368 ft | 455 kts | 123° |
| 2026-02-22 04:38 | 47.00872 | 20.89288 | 32662 ft | 457 kts | 123° |
| 2026-02-22 04:39 | 46.98929 | 20.92982 | 32951 ft | 458 kts | 123° |
| 2026-02-22 04:39 | 46.96985 | 20.96678 | 33301 ft | 458 kts | 123° |
| 2026-02-22 04:39 | 46.95033 | 21.00361 | 33632 ft | 457 kts | 123° |
| 2026-02-22 04:39 | 46.93091 | 21.04036 | 33751 ft | 456 kts | 123° |
| 2026-02-22 04:40 | 46.89209 | 21.11361 | 33986 ft | 455 kts | 123° |
| 2026-02-22 04:40 | 46.87266 | 21.15002 | 34132 ft | 454 kts | 123° |
| 2026-02-22 04:40 | 46.85318 | 21.18639 | 34267 ft | 453 kts | 123° |
| 2026-02-22 04:41 | 46.83382 | 21.22268 | 34406 ft | 453 kts | 123° |
| 2026-02-22 04:41 | 46.81448 | 21.25899 | 34523 ft | 453 kts | 123° |
| 2026-02-22 04:41 | 46.79513 | 21.29525 | 34649 ft | 453 kts | 123° |
| 2026-02-22 04:41 | 46.77581 | 21.33150 | 34774 ft | 453 kts | 123° |
| 2026-02-22 04:42 | 46.75642 | 21.36772 | 34894 ft | 453 kts | 124° |
| 2026-02-22 04:42 | 46.73703 | 21.40395 | 35019 ft | 454 kts | 124° |
| 2026-02-22 04:42 | 46.71757 | 21.44021 | 35147 ft | 453 kts | 124° |
| 2026-02-22 04:42 | 46.69818 | 21.47639 | 35273 ft | 453 kts | 124° |
| 2026-02-22 04:43 | 46.67979 | 21.51351 | 35397 ft | 451 kts | 120° |
| 2026-02-22 04:43 | 46.66264 | 21.55179 | 35525 ft | 452 kts | 120° |
| 2026-02-22 04:43 | 46.64556 | 21.59018 | 35645 ft | 451 kts | 120° |
| 2026-02-22 04:43 | 46.62851 | 21.62858 | 35790 ft | 452 kts | 120° |
| 2026-02-22 04:44 | 46.61142 | 21.66698 | 35903 ft | 452 kts | 120° |
| 2026-02-22 04:44 | 46.59432 | 21.70525 | 36033 ft | 453 kts | 120° |
| 2026-02-22 04:44 | 46.57710 | 21.74356 | 36169 ft | 453 kts | 121° |
| 2026-02-22 04:44 | 46.55985 | 21.78184 | 36285 ft | 453 kts | 121° |
| 2026-02-22 04:45 | 46.54259 | 21.82011 | 36418 ft | 453 kts | 121° |
| 2026-02-22 04:45 | 46.52553 | 21.85806 | 36547 ft | 455 kts | 121° |
| 2026-02-22 04:45 | 46.50822 | 21.89652 | 36676 ft | 455 kts | 122° |
| 2026-02-22 04:45 | 46.49087 | 21.93500 | 36809 ft | 455 kts | 122° |
| 2026-02-22 04:46 | 46.47353 | 21.97344 | 36941 ft | 456 kts | 122° |
| 2026-02-22 04:46 | 46.45618 | 22.01188 | 37074 ft | 456 kts | 122° |
| 2026-02-22 04:46 | 46.43878 | 22.05031 | 37209 ft | 456 kts | 122° |
| 2026-02-22 04:46 | 46.42137 | 22.08890 | 37342 ft | 456 kts | 122° |
| 2026-02-22 04:47 | 46.40401 | 22.12739 | 37477 ft | 456 kts | 123° |
| 2026-02-22 04:47 | 46.38663 | 22.16578 | 37616 ft | 456 kts | 123° |
| 2026-02-22 04:47 | 46.36917 | 22.20410 | 37751 ft | 456 kts | 123° |
| 2026-02-22 04:47 | 46.35170 | 22.24238 | 37891 ft | 456 kts | 123° |
| 2026-02-22 04:48 | 46.33426 | 22.28068 | 38039 ft | 456 kts | 123° |
| 2026-02-22 04:48 | 46.31678 | 22.31899 | 38166 ft | 456 kts | 123° |
| 2026-02-22 04:48 | 46.29925 | 22.35720 | 38309 ft | 455 kts | 124° |
| 2026-02-22 04:48 | 46.28178 | 22.39530 | 38449 ft | 455 kts | 124° |
| 2026-02-22 04:49 | 46.26427 | 22.43351 | 38598 ft | 455 kts | 124° |
| 2026-02-22 04:49 | 46.24675 | 22.47165 | 38734 ft | 456 kts | 124° |
| 2026-02-22 04:49 | 46.22922 | 22.50972 | 38899 ft | 455 kts | 124° |
| 2026-02-22 04:49 | 46.21166 | 22.54778 | 39015 ft | 455 kts | 124° |
| 2026-02-22 04:50 | 46.19411 | 22.58578 | 39131 ft | 455 kts | 124° |
| 2026-02-22 04:50 | 46.17655 | 22.62374 | 39238 ft | 454 kts | 124° |
| 2026-02-22 04:50 | 46.15903 | 22.66156 | 39346 ft | 454 kts | 124° |
| 2026-02-22 04:50 | 46.14148 | 22.69940 | 39396 ft | 455 kts | 124° |
| 2026-02-22 04:51 | 46.10628 | 22.77515 | 39377 ft | 454 kts | 124° |
| 2026-02-22 04:51 | 46.07114 | 22.85059 | 39357 ft | 453 kts | 125° |
| 2026-02-22 04:52 | 46.01839 | 22.96342 | 39360 ft | 453 kts | 125° |
| 2026-02-22 04:53 | 45.98320 | 23.03843 | 39359 ft | 452 kts | 125° |
| 2026-02-22 04:53 | 45.94321 | 23.10753 | 39357 ft | 450 kts | 140° |
| 2026-02-22 04:54 | 45.89510 | 23.16365 | 39366 ft | 448 kts | 143° |
| 2026-02-22 04:54 | 45.84632 | 23.21934 | 39367 ft | 448 kts | 142° |
| 2026-02-22 04:55 | 45.79778 | 23.27525 | 39364 ft | 448 kts | 142° |
| 2026-02-22 04:55 | 45.74923 | 23.33113 | 39362 ft | 447 kts | 143° |
| 2026-02-22 04:56 | 45.70072 | 23.38684 | 39361 ft | 447 kts | 143° |
| 2026-02-22 04:56 | 45.65214 | 23.44251 | 39361 ft | 447 kts | 143° |
| 2026-02-22 04:57 | 45.60356 | 23.49805 | 39354 ft | 447 kts | 143° |
| 2026-02-22 04:57 | 45.55497 | 23.55345 | 39351 ft | 447 kts | 143° |
| 2026-02-22 04:58 | 45.50646 | 23.60864 | 39343 ft | 446 kts | 143° |
| 2026-02-22 04:58 | 45.45792 | 23.66376 | 39335 ft | 445 kts | 143° |
| 2026-02-22 04:59 | 45.40946 | 23.71866 | 39331 ft | 445 kts | 143° |
| 2026-02-22 04:59 | 45.36104 | 23.77341 | 39323 ft | 444 kts | 143° |
| 2026-02-22 05:00 | 45.31265 | 23.82799 | 39319 ft | 444 kts | 143° |
| 2026-02-22 05:00 | 45.26427 | 23.88246 | 39304 ft | 444 kts | 143° |
| 2026-02-22 05:01 | 45.21616 | 23.93745 | 39302 ft | 444 kts | 143° |
| 2026-02-22 05:01 | 45.16791 | 23.99199 | 39309 ft | 444 kts | 144° |
| 2026-02-22 05:02 | 45.11948 | 24.04623 | 39306 ft | 444 kts | 144° |
| 2026-02-22 05:02 | 45.07101 | 24.10032 | 39307 ft | 444 kts | 144° |
| 2026-02-22 05:03 | 45.02238 | 24.15445 | 39311 ft | 445 kts | 144° |
| 2026-02-22 05:03 | 44.97378 | 24.20844 | 39308 ft | 445 kts | 144° |
| 2026-02-22 05:04 | 44.92501 | 24.26249 | 39309 ft | 445 kts | 144° |
| 2026-02-22 05:04 | 44.87858 | 24.31385 | 39314 ft | 446 kts | 144° |
| 2026-02-22 05:05 | 44.82979 | 24.36769 | 39315 ft | 446 kts | 144° |
| 2026-02-22 05:05 | 44.78096 | 24.42147 | 39313 ft | 445 kts | 144° |
| 2026-02-22 05:06 | 44.73217 | 24.47522 | 39312 ft | 445 kts | 144° |
| 2026-02-22 05:06 | 44.68332 | 24.52881 | 39309 ft | 445 kts | 144° |
| 2026-02-22 05:07 | 44.63449 | 24.58221 | 39308 ft | 445 kts | 144° |
| 2026-02-22 05:07 | 44.58561 | 24.63558 | 39307 ft | 445 kts | 144° |
| 2026-02-22 05:08 | 44.53675 | 24.68880 | 39306 ft | 445 kts | 145° |
| 2026-02-22 05:08 | 44.48784 | 24.74157 | 39305 ft | 444 kts | 145° |
| 2026-02-22 05:09 | 44.43886 | 24.79446 | 39306 ft | 444 kts | 145° |
| 2026-02-22 05:09 | 44.39011 | 24.84758 | 39307 ft | 444 kts | 145° |
| 2026-02-22 05:10 | 44.34165 | 24.90017 | 39306 ft | 444 kts | 145° |
| 2026-02-22 05:10 | 44.29282 | 24.95283 | 39301 ft | 444 kts | 145° |
| 2026-02-22 05:11 | 44.24397 | 25.00535 | 39303 ft | 443 kts | 145° |
| 2026-02-22 05:11 | 44.19510 | 25.05779 | 39306 ft | 443 kts | 145° |
| 2026-02-22 05:12 | 44.14979 | 25.11597 | 39300 ft | 448 kts | 133° |
| 2026-02-22 05:12 | 44.11060 | 25.18364 | 39301 ft | 448 kts | 131° |
| 2026-02-22 05:13 | 44.07189 | 25.25162 | 39302 ft | 449 kts | 130° |
| 2026-02-22 05:13 | 44.03406 | 25.32071 | 39300 ft | 449 kts | 130° |
| 2026-02-22 05:14 | 43.99561 | 25.38889 | 39301 ft | 448 kts | 131° |
| 2026-02-22 05:14 | 43.95689 | 25.45681 | 39304 ft | 448 kts | 131° |
| 2026-02-22 05:15 | 43.91810 | 25.52457 | 39303 ft | 448 kts | 131° |
| 2026-02-22 05:15 | 43.87930 | 25.59221 | 39307 ft | 448 kts | 131° |
| 2026-02-22 05:16 | 43.84042 | 25.65979 | 39309 ft | 448 kts | 131° |
| 2026-02-22 05:16 | 43.80157 | 25.72729 | 39310 ft | 448 kts | 131° |
| 2026-02-22 05:17 | 43.76261 | 25.79471 | 39311 ft | 448 kts | 131° |
| 2026-02-22 05:17 | 43.72720 | 25.86595 | 39316 ft | 451 kts | 125° |
| 2026-02-22 05:18 | 43.69403 | 25.93891 | 39306 ft | 451 kts | 125° |
| 2026-02-22 05:18 | 43.66056 | 26.01221 | 39307 ft | 451 kts | 125° |
| 2026-02-22 05:19 | 43.62697 | 26.08539 | 39304 ft | 451 kts | 126° |
| 2026-02-22 05:19 | 43.59333 | 26.15839 | 39306 ft | 451 kts | 125° |
| 2026-02-22 05:20 | 43.55969 | 26.23135 | 39299 ft | 451 kts | 126° |
| 2026-02-22 05:20 | 43.52594 | 26.30420 | 39300 ft | 451 kts | 126° |
| 2026-02-22 05:21 | 43.49218 | 26.37703 | 39295 ft | 451 kts | 126° |
| 2026-02-22 05:21 | 43.45834 | 26.44972 | 39292 ft | 451 kts | 126° |
| 2026-02-22 05:22 | 43.42440 | 26.52251 | 39286 ft | 451 kts | 126° |
| 2026-02-22 05:22 | 43.39044 | 26.59512 | 39290 ft | 452 kts | 126° |
| 2026-02-22 05:23 | 43.35642 | 26.66779 | 39281 ft | 452 kts | 126° |
| 2026-02-22 05:23 | 43.32239 | 26.74026 | 39272 ft | 452 kts | 126° |
| 2026-02-22 05:24 | 43.28828 | 26.81273 | 39266 ft | 452 kts | 126° |
| 2026-02-22 05:24 | 43.25403 | 26.88524 | 39263 ft | 453 kts | 126° |
| 2026-02-22 05:25 | 43.21975 | 26.95767 | 39258 ft | 453 kts | 126° |
| 2026-02-22 05:25 | 43.18535 | 27.03029 | 39260 ft | 454 kts | 126° |
| 2026-02-22 05:26 | 43.15090 | 27.10267 | 39255 ft | 454 kts | 126° |
| 2026-02-22 05:26 | 43.11631 | 27.17507 | 39247 ft | 455 kts | 126° |
| 2026-02-22 05:27 | 43.08162 | 27.24756 | 39245 ft | 455 kts | 126° |
| 2026-02-22 05:27 | 43.04718 | 27.31958 | 39244 ft | 456 kts | 126° |
| 2026-02-22 05:28 | 43.01239 | 27.39204 | 39239 ft | 456 kts | 126° |
| 2026-02-22 05:28 | 42.97481 | 27.46137 | 39238 ft | 453 kts | 135° |
| 2026-02-22 05:29 | 42.93234 | 27.52477 | 39231 ft | 452 kts | 136° |
| 2026-02-22 05:29 | 42.88977 | 27.58798 | 39228 ft | 453 kts | 136° |
| 2026-02-22 05:30 | 42.84710 | 27.65135 | 39220 ft | 454 kts | 136° |
| 2026-02-22 05:30 | 42.80440 | 27.71465 | 39217 ft | 454 kts | 136° |
| 2026-02-22 05:31 | 42.76178 | 27.77782 | 39012 ft | 450 kts | 136° |
| 2026-02-22 05:31 | 42.74055 | 27.80924 | 38710 ft | 451 kts | 136° |
| 2026-02-22 05:31 | 42.71930 | 27.84060 | 38415 ft | 451 kts | 136° |
| 2026-02-22 05:31 | 42.69807 | 27.87192 | 38145 ft | 450 kts | 136° |
| 2026-02-22 05:32 | 42.67687 | 27.90317 | 37878 ft | 450 kts | 136° |
| 2026-02-22 05:32 | 42.65569 | 27.93436 | 37592 ft | 449 kts | 136° |
| 2026-02-22 05:32 | 42.63450 | 27.96549 | 37322 ft | 447 kts | 136° |
| 2026-02-22 05:32 | 42.61346 | 27.99638 | 37065 ft | 444 kts | 136° |
| 2026-02-22 05:33 | 42.59253 | 28.02707 | 36799 ft | 441 kts | 136° |
| 2026-02-22 05:33 | 42.57176 | 28.05755 | 36519 ft | 438 kts | 136° |
| 2026-02-22 05:33 | 42.55116 | 28.08777 | 36076 ft | 434 kts | 136° |
| 2026-02-22 05:33 | 42.53075 | 28.11763 | 35557 ft | 430 kts | 136° |
| 2026-02-22 05:34 | 42.51053 | 28.14719 | 35050 ft | 427 kts | 136° |
| 2026-02-22 05:34 | 42.49036 | 28.17665 | 34509 ft | 425 kts | 136° |
| 2026-02-22 05:34 | 42.47032 | 28.20587 | 33932 ft | 422 kts | 136° |
| 2026-02-22 05:34 | 42.45069 | 28.23449 | 33336 ft | 419 kts | 136° |
| 2026-02-22 05:35 | 42.43087 | 28.26331 | 32781 ft | 416 kts | 136° |
| 2026-02-22 05:35 | 42.41123 | 28.29184 | 32233 ft | 412 kts | 136° |
| 2026-02-22 05:35 | 42.39178 | 28.32005 | 31697 ft | 408 kts | 136° |
| 2026-02-22 05:35 | 42.37251 | 28.34800 | 31164 ft | 405 kts | 136° |
| 2026-02-22 05:36 | 42.35340 | 28.37573 | 30665 ft | 401 kts | 136° |
| 2026-02-22 05:36 | 42.33446 | 28.40315 | 30160 ft | 397 kts | 136° |
| 2026-02-22 05:36 | 42.31567 | 28.43035 | 29572 ft | 394 kts | 135° |
| 2026-02-22 05:36 | 42.29708 | 28.45724 | 29032 ft | 389 kts | 136° |
| 2026-02-22 05:37 | 42.27870 | 28.48378 | 28538 ft | 383 kts | 136° |
| 2026-02-22 05:37 | 42.26061 | 28.50989 | 28048 ft | 379 kts | 136° |
| 2026-02-22 05:37 | 42.24266 | 28.53573 | 27571 ft | 376 kts | 135° |
| 2026-02-22 05:37 | 42.23061 | 28.55310 | 27238 ft | 374 kts | 135° |
| 2026-02-22 05:38 | 42.20716 | 28.58685 | 26581 ft | 371 kts | 136° |
| 2026-02-22 05:38 | 42.19527 | 28.60391 | 26248 ft | 369 kts | 135° |
| 2026-02-22 05:38 | 42.17777 | 28.62905 | 25790 ft | 366 kts | 135° |
| 2026-02-22 05:38 | 42.16036 | 28.65404 | 25346 ft | 364 kts | 135° |
| 2026-02-22 05:39 | 42.14309 | 28.67882 | 24874 ft | 362 kts | 135° |
| 2026-02-22 05:39 | 42.12591 | 28.70344 | 24382 ft | 361 kts | 135° |
| 2026-02-22 05:39 | 42.10852 | 28.72776 | 23933 ft | 359 kts | 139° |
| 2026-02-22 05:39 | 42.08889 | 28.74827 | 23409 ft | 355 kts | 151° |
| 2026-02-22 05:40 | 42.06701 | 28.76197 | 22934 ft | 348 kts | 164° |
| 2026-02-22 05:40 | 42.04342 | 28.76869 | 22681 ft | 357 kts | 175° |
| 2026-02-22 05:40 | 42.01835 | 28.77021 | 22396 ft | 362 kts | 180° |
| 2026-02-22 05:40 | 41.99330 | 28.77066 | 22122 ft | 358 kts | 180° |
| 2026-02-22 05:41 | 41.96846 | 28.77124 | 21837 ft | 356 kts | 180° |
| 2026-02-22 05:41 | 41.94375 | 28.77199 | 21569 ft | 355 kts | 179° |
| 2026-02-22 05:41 | 41.91908 | 28.77286 | 21319 ft | 354 kts | 179° |
| 2026-02-22 05:41 | 41.89463 | 28.77378 | 21047 ft | 350 kts | 179° |
| 2026-02-22 05:42 | 41.87038 | 28.77472 | 20783 ft | 349 kts | 179° |
| 2026-02-22 05:42 | 41.82182 | 28.77669 | 20260 ft | 349 kts | 179° |
| 2026-02-22 05:42 | 41.79755 | 28.77666 | 20003 ft | 348 kts | 185° |
| 2026-02-22 05:43 | 41.77416 | 28.77006 | 19745 ft | 342 kts | 201° |
| 2026-02-22 05:43 | 41.75328 | 28.75526 | 19495 ft | 340 kts | 218° |
| 2026-02-22 05:43 | 41.73655 | 28.73352 | 19241 ft | 334 kts | 233° |
| 2026-02-22 05:43 | 41.72288 | 28.70846 | 19003 ft | 332 kts | 237° |
| 2026-02-22 05:44 | 41.70965 | 28.68313 | 18764 ft | 331 kts | 237° |
| 2026-02-22 05:44 | 41.69637 | 28.65807 | 18518 ft | 330 kts | 236° |
| 2026-02-22 05:44 | 41.68295 | 28.63309 | 18254 ft | 329 kts | 236° |
| 2026-02-22 05:44 | 41.66940 | 28.60834 | 17974 ft | 329 kts | 235° |
| 2026-02-22 05:45 | 41.65589 | 28.58375 | 17704 ft | 327 kts | 235° |
| 2026-02-22 05:45 | 41.64246 | 28.55921 | 17432 ft | 327 kts | 235° |
| 2026-02-22 05:45 | 41.62903 | 28.53468 | 17162 ft | 326 kts | 235° |
| 2026-02-22 05:45 | 41.61571 | 28.51037 | 16896 ft | 324 kts | 235° |
| 2026-02-22 05:46 | 41.60236 | 28.48602 | 16633 ft | 323 kts | 235° |
| 2026-02-22 05:46 | 41.58919 | 28.46180 | 16368 ft | 323 kts | 235° |
| 2026-02-22 05:46 | 41.57602 | 28.43759 | 16105 ft | 320 kts | 235° |
| 2026-02-22 05:46 | 41.56294 | 28.41369 | 15849 ft | 318 kts | 235° |
| 2026-02-22 05:47 | 41.54987 | 28.38991 | 15595 ft | 317 kts | 235° |
| 2026-02-22 05:47 | 41.53680 | 28.36620 | 15345 ft | 316 kts | 234° |
| 2026-02-22 05:47 | 41.52365 | 28.34283 | 15090 ft | 315 kts | 234° |
| 2026-02-22 05:47 | 41.51047 | 28.31959 | 14841 ft | 313 kts | 234° |
| 2026-02-22 05:48 | 41.49730 | 28.29646 | 14594 ft | 312 kts | 233° |
| 2026-02-22 05:48 | 41.48421 | 28.27346 | 14347 ft | 310 kts | 233° |
| 2026-02-22 05:48 | 41.47119 | 28.25059 | 14104 ft | 309 kts | 233° |
| 2026-02-22 05:48 | 41.45825 | 28.22781 | 13847 ft | 307 kts | 233° |
| 2026-02-22 05:49 | 41.44537 | 28.20515 | 13574 ft | 307 kts | 233° |
| 2026-02-22 05:49 | 41.43246 | 28.18254 | 13301 ft | 307 kts | 233° |
| 2026-02-22 05:49 | 41.41960 | 28.15997 | 13003 ft | 300 kts | 233° |
| 2026-02-22 05:49 | 41.40717 | 28.13818 | 12646 ft | 289 kts | 233° |
| 2026-02-22 05:50 | 41.39398 | 28.11864 | 12284 ft | 281 kts | 220° |
| 2026-02-22 05:50 | 41.37732 | 28.10501 | 11955 ft | 280 kts | 201° |
| 2026-02-22 05:50 | 41.35829 | 28.09924 | 11646 ft | 279 kts | 182° |
| 2026-02-22 05:50 | 41.33886 | 28.09921 | 11347 ft | 279 kts | 177° |
| 2026-02-22 05:51 | 41.31950 | 28.10005 | 11060 ft | 279 kts | 176° |
| 2026-02-22 05:51 | 41.30011 | 28.10080 | 10759 ft | 278 kts | 177° |
| 2026-02-22 05:51 | 41.28080 | 28.10138 | 10460 ft | 277 kts | 177° |
| 2026-02-22 05:51 | 41.26151 | 28.10021 | 10156 ft | 279 kts | 189° |
| 2026-02-22 05:52 | 41.24310 | 28.09065 | 10003 ft | 280 kts | 214° |
| 2026-02-22 05:52 | 41.22849 | 28.07391 | 9991 ft | 278 kts | 225° |
| 2026-02-22 05:52 | 41.21481 | 28.05558 | 10006 ft | 282 kts | 226° |
| 2026-02-22 05:52 | 41.20102 | 28.03709 | 10016 ft | 280 kts | 225° |
| 2026-02-22 05:53 | 41.18724 | 28.01949 | 10018 ft | 278 kts | 219° |
| 2026-02-22 05:53 | 41.17117 | 28.00540 | 10025 ft | 279 kts | 209° |
| 2026-02-22 05:53 | 41.15429 | 27.99283 | 10024 ft | 278 kts | 208° |
| 2026-02-22 05:53 | 41.13728 | 27.98029 | 10023 ft | 280 kts | 208° |
| 2026-02-22 05:54 | 41.12042 | 27.96782 | 10027 ft | 277 kts | 208° |
| 2026-02-22 05:54 | 41.10317 | 27.95668 | 10019 ft | 277 kts | 198° |
| 2026-02-22 05:54 | 41.08476 | 27.94976 | 10021 ft | 274 kts | 193° |
| 2026-02-22 05:54 | 41.06617 | 27.94369 | 10022 ft | 278 kts | 192° |
| 2026-02-22 05:55 | 41.04750 | 27.93758 | 10024 ft | 276 kts | 192° |
| 2026-02-22 05:55 | 41.02890 | 27.93140 | 10023 ft | 275 kts | 192° |
| 2026-02-22 05:55 | 41.00997 | 27.92766 | 10022 ft | 276 kts | 180° |
| 2026-02-22 05:55 | 40.99093 | 27.92783 | 10020 ft | 271 kts | 175° |
| 2026-02-22 05:56 | 40.97240 | 27.93186 | 10000 ft | 270 kts | 159° |
| 2026-02-22 05:56 | 40.95600 | 27.94316 | 10017 ft | 265 kts | 139° |
| 2026-02-22 05:56 | 40.94351 | 27.96073 | 9985 ft | 261 kts | 122° |
| 2026-02-22 05:56 | 40.93607 | 27.98214 | 9580 ft | 255 kts | 102° |
| 2026-02-22 05:57 | 40.93418 | 28.00527 | 9137 ft | 253 kts | 85° |
| 2026-02-22 05:57 | 40.93643 | 28.02829 | 8750 ft | 252 kts | 79° |
| 2026-02-22 05:57 | 40.93932 | 28.05109 | 8357 ft | 251 kts | 79° |
| 2026-02-22 05:57 | 40.94208 | 28.07376 | 7986 ft | 250 kts | 79° |
| 2026-02-22 05:58 | 40.94471 | 28.09637 | 7639 ft | 248 kts | 79° |
| 2026-02-22 05:58 | 40.94723 | 28.11893 | 7296 ft | 248 kts | 79° |
| 2026-02-22 05:58 | 40.94970 | 28.14146 | 6978 ft | 247 kts | 80° |
| 2026-02-22 05:58 | 40.95211 | 28.16377 | 6724 ft | 244 kts | 80° |
| 2026-02-22 05:59 | 40.95448 | 28.18602 | 6390 ft | 245 kts | 80° |
| 2026-02-22 05:59 | 40.95684 | 28.20832 | 6126 ft | 242 kts | 80° |
| 2026-02-22 05:59 | 40.95917 | 28.23016 | 5949 ft | 238 kts | 80° |
| 2026-02-22 05:59 | 40.96148 | 28.25189 | 5821 ft | 243 kts | 81° |
| 2026-02-22 06:00 | 40.96379 | 28.27375 | 5661 ft | 234 kts | 80° |
| 2026-02-22 06:00 | 40.96602 | 28.29504 | 5542 ft | 238 kts | 80° |
| 2026-02-22 06:00 | 40.96827 | 28.31648 | 5413 ft | 230 kts | 80° |
| 2026-02-22 06:00 | 40.97049 | 28.33763 | 5313 ft | 234 kts | 80° |
| 2026-02-22 06:01 | 40.97267 | 28.35850 | 5193 ft | 222 kts | 80° |
| 2026-02-22 06:01 | 40.97409 | 28.37836 | 5048 ft | 214 kts | 89° |
| 2026-02-22 06:01 | 40.97111 | 28.39789 | 5004 ft | 223 kts | 109° |
| 2026-02-22 06:01 | 40.96382 | 28.41607 | 5015 ft | 224 kts | 116° |
| 2026-02-22 06:02 | 40.95581 | 28.43383 | 5018 ft | 225 kts | 116° |
| 2026-02-22 06:02 | 40.94791 | 28.45164 | 5028 ft | 224 kts | 116° |
| 2026-02-22 06:02 | 40.94005 | 28.46957 | 5028 ft | 225 kts | 116° |
| 2026-02-22 06:02 | 40.93227 | 28.48735 | 5024 ft | 224 kts | 115° |
| 2026-02-22 06:03 | 40.92456 | 28.50514 | 5020 ft | 223 kts | 115° |
| 2026-02-22 06:03 | 40.91692 | 28.52279 | 5021 ft | 224 kts | 115° |
| 2026-02-22 06:03 | 40.90922 | 28.54056 | 5022 ft | 222 kts | 115° |
| 2026-02-22 06:03 | 40.90161 | 28.55800 | 5020 ft | 212 kts | 115° |
| 2026-02-22 06:04 | 40.89529 | 28.57528 | 5008 ft | 208 kts | 102° |
| 2026-02-22 06:04 | 40.89361 | 28.59394 | 5015 ft | 208 kts | 82° |
| 2026-02-22 06:04 | 40.89690 | 28.61230 | 5028 ft | 203 kts | 69° |
| 2026-02-22 06:04 | 40.90160 | 28.62907 | 5019 ft | 185 kts | 67° |
| 2026-02-22 06:05 | 40.90585 | 28.64432 | 4993 ft | 175 kts | 69° |
| 2026-02-22 06:05 | 40.91002 | 28.66000 | 5017 ft | 183 kts | 69° |
| 2026-02-22 06:05 | 40.91417 | 28.67587 | 5022 ft | 180 kts | 67° |
| 2026-02-22 06:05 | 40.92004 | 28.69020 | 5025 ft | 178 kts | 48° |
| 2026-02-22 06:06 | 40.92992 | 28.70011 | 5033 ft | 179 kts | 31° |
| 2026-02-22 06:06 | 40.94099 | 28.70797 | 5029 ft | 181 kts | 32° |
| 2026-02-22 06:06 | 40.95211 | 28.71581 | 5028 ft | 181 kts | 28° |
| 2026-02-22 06:06 | 40.96382 | 28.72189 | 5020 ft | 183 kts | 21° |
| 2026-02-22 06:07 | 40.97606 | 28.72608 | 5018 ft | 182 kts | 16° |
| 2026-02-22 06:07 | 40.98857 | 28.72873 | 5015 ft | 178 kts | 12° |
| 2026-02-22 06:07 | 41.00007 | 28.73005 | 5069 ft | 155 kts | 9° |
| 2026-02-22 06:07 | 41.01011 | 28.73064 | 5018 ft | 134 kts | 9° |
| 2026-02-22 06:08 | 41.01966 | 28.73103 | 5013 ft | 138 kts | 8° |
| 2026-02-22 06:08 | 41.02928 | 28.73148 | 4948 ft | 137 kts | 10° |
| 2026-02-22 06:08 | 41.03884 | 28.73186 | 4829 ft | 137 kts | 7° |
| 2026-02-22 06:08 | 41.04837 | 28.73182 | 4669 ft | 137 kts | 6° |
| 2026-02-22 06:09 | 41.05771 | 28.73165 | 4525 ft | 128 kts | 6° |
| 2026-02-22 06:09 | 41.06636 | 28.73142 | 4354 ft | 122 kts | 7° |
| 2026-02-22 06:09 | 41.07481 | 28.73134 | 4183 ft | 121 kts | 7° |
| 2026-02-22 06:09 | 41.08323 | 28.73113 | 4012 ft | 119 kts | 6° |
| 2026-02-22 06:10 | 41.09153 | 28.73102 | 3821 ft | 120 kts | 6° |
| 2026-02-22 06:10 | 41.09982 | 28.73086 | 3646 ft | 118 kts | 6° |
| 2026-02-22 06:10 | 41.10806 | 28.73072 | 3480 ft | 118 kts | 5° |
| 2026-02-22 06:10 | 41.11608 | 28.73057 | 3345 ft | 116 kts | 5° |
| 2026-02-22 06:11 | 41.12416 | 28.73042 | 3175 ft | 115 kts | 5° |
| 2026-02-22 06:11 | 41.13206 | 28.73026 | 3012 ft | 113 kts | 4° |
| 2026-02-22 06:11 | 41.13987 | 28.73011 | 2865 ft | 112 kts | 4° |
| 2026-02-22 06:11 | 41.14764 | 28.72997 | 2686 ft | 111 kts | 3° |
| 2026-02-22 06:12 | 41.15531 | 28.72982 | 2536 ft | 110 kts | 2° |
| 2026-02-22 06:12 | 41.16292 | 28.72967 | 2368 ft | 109 kts | 2° |
| 2026-02-22 06:12 | 41.17050 | 28.72952 | 2226 ft | 109 kts | 2° |
| 2026-02-22 06:12 | 41.17805 | 28.72937 | 2073 ft | 108 kts | 1° |
| 2026-02-22 06:13 | 41.18556 | 28.72923 | 1932 ft | 108 kts | 1° |
| 2026-02-22 06:13 | 41.19303 | 28.72909 | 1771 ft | 107 kts | 0° |
| 2026-02-22 06:13 | 41.20053 | 28.72894 | 1608 ft | 109 kts | 360° |
| 2026-02-22 06:13 | 41.20815 | 28.72879 | 1458 ft | 110 kts | 359° |
| 2026-02-22 06:14 | 41.21575 | 28.72865 | 1301 ft | 110 kts | 359° |
| 2026-02-22 06:14 | 41.22331 | 28.72850 | 1137 ft | 108 kts | 359° |
| 2026-02-22 06:14 | 41.23079 | 28.72836 | 989 ft | 108 kts | 359° |
| 2026-02-22 06:14 | 41.23829 | 28.72821 | 831 ft | 108 kts | 359° |
| 2026-02-22 06:15 | 41.24597 | 28.72806 | 688 ft | 111 kts | 359° |
| 2026-02-22 06:15 | 41.25363 | 28.72792 | 548 ft | 109 kts | 360° |
| 2026-02-22 06:15 | 41.26111 | 28.72783 | 435 ft | 108 kts | 359° |
| 2026-02-22 06:15 | 41.26854 | 28.72765 | 339 ft | 99 kts | 359° |
| 2026-02-22 06:16 | 41.27343 | 28.72750 | 337 ft | 42 kts | 359° |
| 2026-02-22 06:16 | 41.27492 | 28.72746 | 337 ft | 16 kts | 359° |
| 2026-02-22 06:16 | 41.27619 | 28.72745 | 338 ft | 20 kts | 359° |
| 2026-02-22 06:16 | 41.27776 | 28.72746 | 339 ft | 25 kts | 359° |
| 2026-02-22 06:17 | 41.27910 | 28.72750 | 338 ft | 15 kts | 8° |
| 2026-02-22 06:17 | 41.28017 | 28.72799 | 339 ft | 17 kts | 24° |
| 2026-02-22 06:17 | 41.28109 | 28.72861 | 339 ft | 0 kts | 31° |
| 2026-02-22 06:17 | 41.28116 | 28.72867 | 339 ft | 2 kts | 31° |
| 2026-02-22 06:18 | 41.28124 | 28.72873 | 339 ft | 0 kts | 31° |
| 2026-02-22 06:18 | 41.28128 | 28.72877 | 338 ft | 3 kts | 31° |
| 2026-02-22 06:18 | 41.28147 | 28.72919 | 338 ft | 8 kts | 91° |
| 2026-02-22 06:19 | 41.28084 | 28.72962 | 335 ft | 14 kts | 178° |
| 2026-02-22 06:19 | 41.27972 | 28.72970 | 337 ft | 18 kts | 177° |
| 2026-02-22 06:19 | 41.27841 | 28.72968 | 335 ft | 20 kts | 180° |
| 2026-02-22 06:19 | 41.27697 | 28.72970 | 337 ft | 22 kts | 179° |
| 2026-02-22 06:20 | 41.27548 | 28.72974 | 335 ft | 14 kts | 179° |
| 2026-02-22 06:20 | 41.27442 | 28.72977 | 339 ft | 15 kts | 178° |
| 2026-02-22 06:20 | 41.27392 | 28.73038 | 339 ft | 11 kts | 97° |
| 2026-02-22 06:20 | 41.27392 | 28.73151 | 339 ft | 13 kts | 88° |
| 2026-02-22 06:21 | 41.27395 | 28.73286 | 339 ft | 16 kts | 88° |
| 2026-02-22 06:21 | 41.27398 | 28.73441 | 339 ft | 18 kts | 89° |
| 2026-02-22 06:21 | 41.27400 | 28.73616 | 339 ft | 20 kts | 89° |
| 2026-02-22 06:21 | 41.27402 | 28.73809 | 339 ft | 22 kts | 89° |
| 2026-02-22 06:22 | 41.27404 | 28.74020 | 339 ft | 24 kts | 89° |
| 2026-02-22 06:22 | 41.27407 | 28.74248 | 338 ft | 26 kts | 89° |
| 2026-02-22 06:22 | 41.27411 | 28.74476 | 339 ft | 15 kts | 88° |
| 2026-02-22 06:22 | 41.27407 | 28.74570 | 339 ft | 7 kts | 115° |
| 2026-02-22 06:23 | 41.27360 | 28.74599 | 336 ft | 9 kts | 178° |
| 2026-02-22 06:23 | 41.27286 | 28.74602 | 336 ft | 12 kts | 179° |
| 2026-02-22 06:23 | 41.27194 | 28.74605 | 339 ft | 14 kts | 179° |
| 2026-02-22 06:23 | 41.27087 | 28.74605 | 336 ft | 17 kts | 180° |
| 2026-02-22 06:24 | 41.27031 | 28.74606 | 338 ft | 9 kts | 179° |
| 2026-02-22 06:24 | 41.26977 | 28.74638 | 336 ft | 10 kts | 111° |
| 2026-02-22 06:24 | 41.26975 | 28.74746 | 339 ft | 13 kts | 89° |
| 2026-02-22 06:24 | 41.26977 | 28.74877 | 339 ft | 15 kts | 89° |
| 2026-02-22 06:25 | 41.26979 | 28.75019 | 339 ft | 11 kts | 88° |
| 2026-02-22 06:25 | 41.26981 | 28.75099 | 339 ft | 9 kts | 89° |
| 2026-02-22 06:25 | 41.26934 | 28.75149 | 337 ft | 11 kts | 176° |
| 2026-02-22 06:25 | 41.26851 | 28.75152 | 335 ft | 13 kts | 179° |
| 2026-02-22 06:26 | 41.26751 | 28.75155 | 338 ft | 15 kts | 179° |
| 2026-02-22 06:26 | 41.26663 | 28.75153 | 338 ft | 12 kts | 188° |
| 2026-02-22 06:26 | 41.26574 | 28.75122 | 337 ft | 14 kts | 196° |
| 2026-02-22 06:26 | 41.26484 | 28.75086 | 337 ft | 11 kts | 197° |
| 2026-02-22 06:27 | 41.26441 | 28.75067 | 336 ft | 1 kts | 198° |
| 2026-02-22 06:27 | 41.26429 | 28.75062 | 339 ft | 3 kts | 200° |
| 2026-02-22 06:27 | 41.26409 | 28.75035 | 338 ft | 6 kts | 265° |
| 2026-02-22 06:27 | 41.26419 | 28.74976 | 337 ft | 3 kts | 286° |
| 2026-02-22 06:28 | 41.26422 | 28.74960 | 336 ft | 0 kts | 287° |
| 2026-02-22 06:30 | 41.26450 | 28.74942 | 338 ft | 0 kts | 290° |